Decoded Metar for LPMA (FUNCHAL/MADEIRA in PORTUGAL) (IATA:N/A) | Meteo·Mobile Aviation Weather
aviador You're here:

LPMA Decoded Metar

FUNCHAL/MADEIRA in PORTUGAL
Report Time2018-12-11 11:30:00
UTC Time2018-12-11 11:52:49
Flight Rules vfr VFR
Wind020° at 07 kt
W.Decomp.*RWY 05: 6.4 kt HW 2.8 kt LCW
W.Rank020° ranks 1
Current wind is below 020° avg. (11.3)
Visibility9999 m
Phenomena:N/A
Clouds:Few 015 Hf
Expected CloudBase > 2,400 ft AGL from Temp-Dew spread
CeilingNone
Temp20°C (ISA +5)
Dew Point14°C (69% RH)
AAT18.8°C
QNH1028 hPa
Density Alt518 ft
Elevation180 ft
Report Wrong Elevation
Raw Report
LPMA 111130Z 02007KT 330V080 9999 FEW015 20/14 Q1028=

Extra information for LPMA:More info

Metar Taf Metar & Taf Last 4 Metars F.Rules Stats Wind Profile Meteogram Temp Stats Airport Information Weather charts Add Link Nearby VenuesMetar ALERT Operation Metar Decoded Social comments